Terminal Aerodrome Forecast
Issued by NWS

Home | Current Version | Previous Version | Graphics & Text | Print | Product List | Glossary On
Versions: 1 2 3 4 5 6 7 8 9 10 11 12 13 14 15 16 17
000
FTUS43 KMPX 032333
TAFRNH
TAF
KRNH 032333Z 0400/0424 35014G20KT P6SM VCTS BKN050CB OVC100
      TEMPO 0400/0402 6SM -SHRA OVC045
     FM040300 01012KT P6SM VCSH BKN060 BKN120
     FM040600 35009KT P6SM BKN200
     FM041500 01011KT P6SM SCT250=

USA.gov is the U.S. government's official web portal to all federal, state and local government web resources and services.